Time;durP1;ratioP1;P1;durP2;ratioP2;P2;SDS_P1;SDS_P2;PMS_P1;PMS_P2;Temp;Humidity;BMP_temperature;BMP_pressure;BME280_temperature;BME280_humidity;BME280_pressure;Samples;Min_cycle;Max_cycle;Signal;HPM_P1;HPM_P2
2022/10/03 00:00:55;;;;;;;;;;;9.60;99.90;;;;;;5101857;27;19916;-57
2022/10/03 00:03:38;;;;;;;;;;;9.50;99.90;;;;;;5123487;27;19911;-57
2022/10/03 00:06:24;;;;;;;;;;;9.50;99.90;;;;;;5090831;27;19950;-57
2022/10/03 00:09:10;;;;;;;;;;;9.50;99.90;;;;;;5091404;27;19916;-57
2022/10/03 00:11:56;;;;;;;;;;;9.30;99.90;;;;;;5092111;27;19916;-57
2022/10/03 00:14:41;;;;;;;;;;;9.00;99.90;;;;;;5099436;27;19977;-57
2022/10/03 00:17:26;;;;;;;;;;;8.80;99.90;;;;;;5093268;27;20209;-57
2022/10/03 00:20:12;;;;;;;;;;;8.60;99.90;;;;;;5095538;27;19921;-57
2022/10/03 00:22:55;;;;;;;;;;;8.50;99.90;;;;;;5103461;27;19929;-57
2022/10/03 00:25:39;;;;;;;;;;;8.40;99.90;;;;;;5095444;27;20385;-57
2022/10/03 00:28:26;;;;;;;;;;;8.10;99.90;;;;;;5103893;27;19926;-55
2022/10/03 00:31:11;;;;;;;;;;;7.90;99.90;;;;;;5069546;28;20370;-57
2022/10/03 00:34:00;;;;;;;;;;;7.90;99.90;;;;;;5104049;27;19915;-57
2022/10/03 00:36:44;;;;;;;;;;;7.90;99.90;;;;;;5088048;27;19962;-57
2022/10/03 00:39:38;;;;;;;;;;;7.90;99.90;;;;;;5103125;27;19930;-57
2022/10/03 00:42:36;;;;;;;;;;;7.80;99.90;;;;;;5124899;27;19935;-57
2022/10/03 00:45:34;;;;;;;;;;;7.90;99.90;;;;;;5100048;27;20316;-57
2022/10/03 00:48:28;;;;;;;;;;;8.10;99.90;;;;;;5103893;27;19926;-57
2022/10/03 00:51:19;;;;;;;;;;;8.10;99.90;;;;;;5103688;27;19916;-57
2022/10/03 00:54:08;;;;;;;;;;;8.20;99.90;;;;;;5104337;27;20210;-56
2022/10/03 00:56:58;;;;;;;;;;;8.10;99.90;;;;;;5107164;27;19912;-57
2022/10/03 00:59:49;;;;;;;;;;;7.90;99.90;;;;;;5124470;27;19945;-57
2022/10/03 01:02:41;;;;;;;;;;;7.80;99.90;;;;;;5124569;27;19911;-57
2022/10/03 01:05:27;;;;;;;;;;;7.80;99.90;;;;;;5099558;27;20283;-57
2022/10/03 01:08:34;;;;;;;;;;;7.90;99.90;;;;;;5098301;27;20141;-57
2022/10/03 01:11:23;;;;;;;;;;;7.90;99.90;;;;;;5120040;27;20267;-57
2022/10/03 01:14:10;;;;;;;;;;;8.00;99.90;;;;;;5093670;27;19930;-57
2022/10/03 01:17:04;;;;;;;;;;;8.00;99.90;;;;;;5098186;27;20320;-57
2022/10/03 01:20:03;;;;;;;;;;;8.00;99.90;;;;;;5099228;27;19926;-54
2022/10/03 01:22:54;;;;;;;;;;;8.10;99.90;;;;;;5103634;27;19912;-57
2022/10/03 01:25:39;;;;;;;;;;;8.10;99.90;;;;;;5092767;27;20320;-57
2022/10/03 01:31:34;;;;;;;;;;;8.10;99.90;;;;;;5093321;27;20343;-57
2022/10/03 01:34:19;;;;;;;;;;;8.10;99.90;;;;;;5122991;27;19919;-57
2022/10/03 01:37:05;;;;;;;;;;;8.20;99.90;;;;;;5103735;27;19954;-57
2022/10/03 01:39:59;;;;;;;;;;;8.30;99.90;;;;;;5098975;27;19930;-57
2022/10/03 01:42:44;;;;;;;;;;;8.30;99.90;;;;;;5122823;27;19912;-57
2022/10/03 01:45:27;;;;;;;;;;;8.20;99.90;;;;;;5097880;27;19973;-57
2022/10/03 01:48:10;;;;;;;;;;;8.10;99.90;;;;;;5123644;27;19912;-56
2022/10/03 01:50:54;;;;;;;;;;;8.20;99.90;;;;;;5123126;27;19923;-57
2022/10/03 01:53:40;;;;;;;;;;;8.30;99.90;;;;;;5103182;27;20290;-57
2022/10/03 01:56:27;;;;;;;;;;;8.50;99.90;;;;;;5090342;27;20134;-57
2022/10/03 01:59:11;;;;;;;;;;;8.50;99.90;;;;;;5123393;27;19916;-57
2022/10/03 02:01:55;;;;;;;;;;;8.40;99.90;;;;;;5122483;27;19916;-57
2022/10/03 02:04:42;;;;;;;;;;;8.40;99.90;;;;;;5093066;27;19958;-57
2022/10/03 02:07:25;;;;;;;;;;;8.70;99.90;;;;;;5102249;27;19961;-56
2022/10/03 02:10:09;;;;;;;;;;;8.80;99.90;;;;;;5101931;27;19946;-56
2022/10/03 02:12:53;;;;;;;;;;;9.00;99.90;;;;;;5103713;27;19946;-56
2022/10/03 02:15:35;;;;;;;;;;;9.00;99.90;;;;;;5116243;27;19913;-56
2022/10/03 02:18:18;;;;;;;;;;;9.10;99.90;;;;;;5100538;27;19926;-56
2022/10/03 02:21:07;;;;;;;;;;;9.20;99.90;;;;;;5096689;27;19916;-56
2022/10/03 02:23:48;;;;;;;;;;;9.30;99.90;;;;;;5071858;28;19916;-56
2022/10/03 02:26:51;;;;;;;;;;;9.30;99.90;;;;;;5099450;27;19916;-56
2022/10/03 02:29:47;;;;;;;;;;;9.40;99.90;;;;;;5097581;27;19969;-56
2022/10/03 02:32:46;;;;;;;;;;;9.40;99.90;;;;;;5098022;27;19917;-56
2022/10/03 02:35:45;;;;;;;;;;;9.50;99.90;;;;;;5119983;27;19919;-57
2022/10/03 02:38:33;;;;;;;;;;;9.40;99.90;;;;;;5101538;27;19920;-56
2022/10/03 02:41:17;;;;;;;;;;;9.40;99.90;;;;;;5100002;27;19916;-57
2022/10/03 02:44:24;;;;;;;;;;;9.40;99.90;;;;;;5095772;27;19924;-56
2022/10/03 02:47:18;;;;;;;;;;;9.40;99.90;;;;;;5127480;27;20447;-56
2022/10/03 02:50:18;;;;;;;;;;;9.40;99.90;;;;;;5108017;27;19912;-56
2022/10/03 02:53:12;;;;;;;;;;;9.50;99.90;;;;;;5094313;27;19961;-56
2022/10/03 02:56:10;;;;;;;;;;;9.50;99.90;;;;;;5079296;27;19931;-56
2022/10/03 02:59:00;;;;;;;;;;;9.50;99.90;;;;;;5103132;27;19912;-56
2022/10/03 03:01:57;;;;;;;;;;;9.50;99.90;;;;;;5100368;27;20394;-56
2022/10/03 03:04:51;;;;;;;;;;;9.30;99.90;;;;;;5123185;27;19912;-57
2022/10/03 03:07:39;;;;;;;;;;;9.00;99.90;;;;;;5153657;27;19915;-55
2022/10/03 03:10:33;;;;;;;;;;;8.60;99.90;;;;;;5099293;27;20328;-55
2022/10/03 03:13:32;;;;;;;;;;;8.40;99.90;;;;;;5078239;27;19917;-55
2022/10/03 03:16:21;;;;;;;;;;;8.20;99.90;;;;;;5101126;27;20149;-54
2022/10/03 03:19:24;;;;;;;;;;;8.10;99.90;;;;;;5146474;27;19911;-54
2022/10/03 03:22:12;;;;;;;;;;;8.20;99.90;;;;;;5101910;27;20324;-54
2022/10/03 03:25:16;;;;;;;;;;;8.50;99.90;;;;;;5102283;27;20377;-54
2022/10/03 03:28:03;;;;;;;;;;;8.60;99.90;;;;;;5102507;27;19916;-54
2022/10/03 03:30:47;;;;;;;;;;;8.80;99.90;;;;;;5118479;27;19920;-55
2022/10/03 03:33:31;;;;;;;;;;;8.90;99.90;;;;;;5123778;27;20137;-54
2022/10/03 03:36:17;;;;;;;;;;;8.90;99.90;;;;;;5099980;27;19930;-55
2022/10/03 03:39:00;;;;;;;;;;;9.00;99.90;;;;;;5123146;27;19935;-57
2022/10/03 03:41:54;;;;;;;;;;;9.00;99.90;;;;;;5100043;27;19919;-56
2022/10/03 03:44:58;;;;;;;;;;;9.00;99.90;;;;;;5078649;27;20362;-54
2022/10/03 03:47:43;;;;;;;;;;;9.00;99.90;;;;;;5093407;27;20059;-54
2022/10/03 03:50:31;;;;;;;;;;;8.90;99.90;;;;;;5096897;27;19965;-55
2022/10/03 03:53:22;;;;;;;;;;;8.90;99.90;;;;;;5112650;27;20105;-55
2022/10/03 03:56:16;;;;;;;;;;;8.90;99.90;;;;;;5088643;27;19917;-56
2022/10/03 03:59:04;;;;;;;;;;;8.90;99.90;;;;;;5099794;27;20324;-56
2022/10/03 04:01:55;;;;;;;;;;;9.00;99.90;;;;;;5100683;27;19930;-55
2022/10/03 04:04:54;;;;;;;;;;;9.10;99.90;;;;;;5113679;27;19916;-55
2022/10/03 04:07:47;;;;;;;;;;;9.20;99.90;;;;;;5124301;27;19915;-55
2022/10/03 04:10:31;;;;;;;;;;;9.20;99.90;;;;;;5120312;27;19919;-55
2022/10/03 04:13:19;;;;;;;;;;;9.30;99.90;;;;;;5084045;27;20427;-54
2022/10/03 04:16:09;;;;;;;;;;;9.30;99.90;;;;;;5089961;27;19958;-56
2022/10/03 04:19:00;;;;;;;;;;;9.30;99.90;;;;;;5077822;28;20189;-57
2022/10/03 04:21:49;;;;;;;;;;;9.30;99.90;;;;;;5121378;27;19916;-55
2022/10/03 04:24:43;;;;;;;;;;;9.30;99.90;;;;;;5121915;27;19916;-56
2022/10/03 04:27:40;;;;;;;;;;;9.30;99.90;;;;;;5122699;27;19912;-55
2022/10/03 04:30:24;;;;;;;;;;;9.30;99.90;;;;;;5079916;27;20184;-54
2022/10/03 04:33:11;;;;;;;;;;;9.30;99.90;;;;;;5103840;27;19912;-55
2022/10/03 04:36:08;;;;;;;;;;;9.30;99.90;;;;;;5105888;27;19961;-56
2022/10/03 04:38:54;;;;;;;;;;;9.30;99.90;;;;;;5123121;27;19923;-55
2022/10/03 04:41:37;;;;;;;;;;;9.20;99.90;;;;;;5146610;27;19916;-55
2022/10/03 04:44:26;;;;;;;;;;;9.20;99.90;;;;;;5103263;27;19934;-53
2022/10/03 04:47:09;;;;;;;;;;;9.20;99.90;;;;;;5100658;27;20079;-55
2022/10/03 04:49:55;;;;;;;;;;;9.10;99.90;;;;;;5080913;28;19954;-54
2022/10/03 04:52:39;;;;;;;;;;;9.10;99.90;;;;;;5104613;27;20312;-54
2022/10/03 04:55:23;;;;;;;;;;;9.10;99.90;;;;;;5121396;27;19920;-55
2022/10/03 04:58:07;;;;;;;;;;;9.10;99.90;;;;;;5124561;27;19911;-56
2022/10/03 05:00:54;;;;;;;;;;;9.10;99.90;;;;;;5098883;27;20348;-54
2022/10/03 05:03:42;;;;;;;;;;;9.00;99.90;;;;;;5103382;27;19916;-55
2022/10/03 05:06:42;;;;;;;;;;;9.00;99.90;;;;;;5131298;27;19916;-55
2022/10/03 05:09:25;;;;;;;;;;;9.00;99.90;;;;;;5122404;27;19911;-55
2022/10/03 05:12:10;;;;;;;;;;;9.00;99.90;;;;;;5104540;27;19920;-55
2022/10/03 05:15:02;;;;;;;;;;;9.00;99.90;;;;;;5142057;27;20323;-56
2022/10/03 05:17:47;;;;;;;;;;;9.00;99.90;;;;;;5113772;27;19912;-56
2022/10/03 05:20:37;;;;;;;;;;;9.00;99.90;;;;;;5119875;27;19919;-57
2022/10/03 05:23:24;;;;;;;;;;;9.00;99.90;;;;;;5103522;27;20367;-56
2022/10/03 05:26:11;;;;;;;;;;;9.10;99.90;;;;;;5099938;27;20323;-55
2022/10/03 05:28:54;;;;;;;;;;;9.00;99.90;;;;;;5103100;27;20117;-57
2022/10/03 05:31:53;;;;;;;;;;;9.10;99.90;;;;;;5079340;28;19920;-54
2022/10/03 05:34:44;;;;;;;;;;;9.10;99.90;;;;;;5123590;27;19916;-55
2022/10/03 05:37:33;;;;;;;;;;;9.10;99.90;;;;;;5094949;27;19918;-55
2022/10/03 05:40:16;;;;;;;;;;;9.10;99.90;;;;;;5101423;27;19958;-56
2022/10/03 05:43:02;;;;;;;;;;;9.20;99.90;;;;;;5124947;27;19912;-56
2022/10/03 05:45:48;;;;;;;;;;;9.20;99.90;;;;;;5101090;27;20377;-55
2022/10/03 05:48:34;;;;;;;;;;;9.20;99.90;;;;;;5124179;27;19915;-55
2022/10/03 05:51:22;;;;;;;;;;;9.20;99.90;;;;;;5080248;28;19920;-55
2022/10/03 05:54:18;;;;;;;;;;;9.30;99.90;;;;;;5104599;27;19951;-55
2022/10/03 05:57:12;;;;;;;;;;;9.30;99.90;;;;;;5096242;27;19920;-55
2022/10/03 06:00:00;;;;;;;;;;;9.30;99.90;;;;;;5106187;27;19920;-55
2022/10/03 06:03:04;;;;;;;;;;;9.40;99.90;;;;;;5064004;28;19917;-55
2022/10/03 06:05:55;;;;;;;;;;;9.50;99.90;;;;;;5120533;27;19920;-55
2022/10/03 06:08:44;;;;;;;;;;;9.50;99.90;;;;;;5084544;27;19950;-55
2022/10/03 06:11:36;;;;;;;;;;;9.60;99.90;;;;;;5099758;27;19916;-54
2022/10/03 06:14:26;;;;;;;;;;;9.60;99.90;;;;;;5122757;27;20621;-55
2022/10/03 06:17:24;;;;;;;;;;;9.60;99.90;;;;;;5101822;27;19916;-55
2022/10/03 06:20:16;;;;;;;;;;;9.70;99.90;;;;;;5100864;27;19916;-56
2022/10/03 06:23:11;;;;;;;;;;;9.80;99.90;;;;;;5103155;27;20391;-55
2022/10/03 06:26:00;;;;;;;;;;;9.90;99.90;;;;;;5152510;27;20345;-54
2022/10/03 06:28:57;;;;;;;;;;;9.90;99.90;;;;;;5102782;27;20478;-55
2022/10/03 06:31:53;;;;;;;;;;;9.90;99.90;;;;;;5075916;28;19916;-56
2022/10/03 06:34:49;;;;;;;;;;;9.70;99.90;;;;;;5102557;27;19920;-54
2022/10/03 06:37:44;;;;;;;;;;;9.40;99.90;;;;;;5123694;27;20372;-55
2022/10/03 06:40:41;;;;;;;;;;;9.10;99.90;;;;;;5098084;27;20735;-55
2022/10/03 06:43:34;;;;;;;;;;;8.90;99.90;;;;;;5101375;27;19926;-56
2022/10/03 06:46:31;;;;;;;;;;;8.90;99.90;;;;;;5097873;27;19920;-54
2022/10/03 06:49:41;;;;;;;;;;;9.00;99.90;;;;;;5102353;27;20330;-55
2022/10/03 06:52:43;;;;;;;;;;;9.00;99.90;;;;;;5112924;27;19916;-55
2022/10/03 06:55:30;;;;;;;;;;;9.00;99.90;;;;;;5120909;27;19915;-54
2022/10/03 06:58:27;;;;;;;;;;;9.00;99.90;;;;;;5105017;27;20522;-55
2022/10/03 07:01:24;;;;;;;;;;;9.00;99.90;;;;;;5099984;27;19958;-57
2022/10/03 07:04:17;;;;;;;;;;;9.00;99.90;;;;;;5103529;27;19912;-54
2022/10/03 07:07:06;;;;;;;;;;;9.20;99.90;;;;;;5120668;27;19923;-55
2022/10/03 07:09:56;;;;;;;;;;;9.30;99.90;;;;;;5121622;27;19930;-55
2022/10/03 07:13:01;;;;;;;;;;;9.50;99.90;;;;;;5089493;27;20650;-55
2022/10/03 07:15:55;;;;;;;;;;;9.80;99.90;;;;;;5119857;27;19935;-55
2022/10/03 07:18:53;;;;;;;;;;;10.20;99.90;;;;;;5096511;27;19924;-54
2022/10/03 07:21:51;;;;;;;;;;;10.40;99.90;;;;;;5093332;27;20332;-55
2022/10/03 07:24:51;;;;;;;;;;;10.50;99.90;;;;;;5117217;27;19916;-54
2022/10/03 07:27:40;;;;;;;;;;;10.60;99.90;;;;;;5094438;27;20327;-55
2022/10/03 07:30:21;;;;;;;;;;;10.50;99.90;;;;;;5110028;27;19934;-55
2022/10/03 07:33:19;;;;;;;;;;;10.50;99.90;;;;;;5101960;27;20439;-57
2022/10/03 07:39:52;;;;;;;;;;;10.90;99.90;;;;;;5089236;27;20205;-55
2022/10/03 07:42:49;;;;;;;;;;;11.00;99.90;;;;;;5094786;27;19913;-54
2022/10/03 07:45:33;;;;;;;;;;;11.30;99.90;;;;;;5100635;27;19934;-58
2022/10/03 07:48:31;;;;;;;;;;;11.30;99.90;;;;;;5122909;27;19915;-55
2022/10/03 07:51:16;;;;;;;;;;;11.30;99.90;;;;;;5099547;27;19988;-56
2022/10/03 07:54:16;;;;;;;;;;;11.20;99.90;;;;;;5091500;27;19916;-55
2022/10/03 07:57:06;;;;;;;;;;;11.20;99.90;;;;;;5089604;27;19916;-55
2022/10/03 08:00:12;;;;;;;;;;;11.20;99.90;;;;;;5107954;27;19923;-56
2022/10/03 08:03:08;;;;;;;;;;;11.40;99.90;;;;;;5092081;27;19924;-56
2022/10/03 08:05:54;;;;;;;;;;;11.40;99.90;;;;;;5097611;27;19935;-54
2022/10/03 08:08:59;;;;;;;;;;;11.60;99.90;;;;;;5123552;27;19912;-54
2022/10/03 08:11:55;;;;;;;;;;;11.90;99.90;;;;;;5092293;27;19958;-55
2022/10/03 08:14:41;;;;;;;;;;;12.30;99.90;;;;;;5123657;27;19916;-55
2022/10/03 08:17:41;;;;;;;;;;;12.40;99.90;;;;;;5091757;27;19920;-56
2022/10/03 08:20:41;;;;;;;;;;;12.70;99.90;;;;;;5077734;27;19921;-55
2022/10/03 08:23:44;;;;;;;;;;;13.00;99.90;;;;;;5103064;27;20366;-55
2022/10/03 08:26:32;;;;;;;;;;;13.20;99.90;;;;;;5115426;27;19919;-54
2022/10/03 08:29:29;;;;;;;;;;;13.40;99.90;;;;;;5080456;27;20491;-54
2022/10/03 08:32:32;;;;;;;;;;;13.50;99.90;;;;;;5090416;27;19930;-55
2022/10/03 08:35:29;;;;;;;;;;;13.60;99.90;;;;;;5100837;27;19924;-56
2022/10/03 08:38:17;;;;;;;;;;;13.60;99.90;;;;;;5125803;27;20316;-55
2022/10/03 08:41:14;;;;;;;;;;;13.70;99.90;;;;;;5102065;27;20328;-57
2022/10/03 08:44:17;;;;;;;;;;;13.80;99.90;;;;;;5106258;27;20185;-54
2022/10/03 08:47:17;;;;;;;;;;;13.90;99.90;;;;;;5101814;27;19920;-56
2022/10/03 08:50:15;;;;;;;;;;;13.80;99.90;;;;;;5096920;27;19924;-55
2022/10/03 08:53:09;;;;;;;;;;;13.60;99.90;;;;;;5102995;27;19916;-54
2022/10/03 08:55:54;;;;;;;;;;;13.60;99.90;;;;;;5094805;27;19919;-55
2022/10/03 08:59:03;;;;;;;;;;;13.60;99.90;;;;;;5103086;27;20435;-56
2022/10/03 09:01:55;;;;;;;;;;;13.70;99.90;;;;;;5075270;28;20324;-55
2022/10/03 09:04:52;;;;;;;;;;;13.80;99.90;;;;;;5103390;27;19912;-56
2022/10/03 09:07:57;;;;;;;;;;;13.60;99.90;;;;;;5121549;22;19933;-55
2022/10/03 09:10:53;;;;;;;;;;;13.40;99.90;;;;;;5099142;27;20357;-55
2022/10/03 09:14:09;;;;;;;;;;;13.20;99.90;;;;;;5098627;27;19926;-55
2022/10/03 09:16:54;;;;;;;;;;;13.20;99.90;;;;;;5109773;27;19923;-55
2022/10/03 09:20:05;;;;;;;;;;;13.70;99.90;;;;;;5122538;27;19916;-55
2022/10/03 09:22:57;;;;;;;;;;;14.20;99.90;;;;;;5122726;27;19920;-55
2022/10/03 09:25:46;;;;;;;;;;;14.50;99.90;;;;;;5118760;27;19916;-56
2022/10/03 09:28:38;;;;;;;;;;;14.60;99.90;;;;;;5100942;27;21229;-55
2022/10/03 09:31:25;;;;;;;;;;;14.70;99.90;;;;;;5098757;27;19924;-55
2022/10/03 09:34:12;;;;;;;;;;;14.80;99.90;;;;;;5101877;27;19912;-55
2022/10/03 09:37:17;;;;;;;;;;;14.80;99.90;;;;;;5092549;27;20332;-55
2022/10/03 09:40:17;;;;;;;;;;;14.80;99.90;;;;;;5121209;27;20317;-56
2022/10/03 09:43:03;;;;;;;;;;;14.60;99.90;;;;;;5119706;27;20188;-56
2022/10/03 09:45:59;;;;;;;;;;;14.60;99.90;;;;;;5091252;27;19922;-55
2022/10/03 09:48:50;;;;;;;;;;;14.80;99.90;;;;;;5123057;27;19912;-55
2022/10/03 09:51:39;;;;;;;;;;;15.10;99.90;;;;;;5094271;27;19916;-55
2022/10/03 09:54:31;;;;;;;;;;;15.10;99.90;;;;;;5084111;27;19920;-55
2022/10/03 09:57:37;;;;;;;;;;;15.00;99.90;;;;;;5072579;27;19913;-56
2022/10/03 10:00:22;;;;;;;;;;;15.20;99.90;;;;;;5099561;27;20545;-56
2022/10/03 10:03:19;;;;;;;;;;;15.60;99.90;;;;;;5103937;27;19926;-54
2022/10/03 10:06:16;;;;;;;;;;;16.00;99.90;;;;;;5118558;27;19929;-55
2022/10/03 10:09:26;;;;;;;;;;;16.40;99.90;;;;;;5102782;27;19954;-56
2022/10/03 10:12:17;;;;;;;;;;;16.50;99.90;;;;;;5084103;27;19916;-56
2022/10/03 10:15:04;;;;;;;;;;;16.70;99.90;;;;;;5148948;27;19911;-56
2022/10/03 10:17:54;;;;;;;;;;;17.00;99.90;;;;;;5106941;27;19912;-55
2022/10/03 10:20:51;;;;;;;;;;;16.80;99.90;;;;;;5119590;27;20278;-56
2022/10/03 10:23:42;;;;;;;;;;;16.60;99.90;;;;;;5115896;27;19912;-56
2022/10/03 10:26:49;;;;;;;;;;;16.90;99.90;;;;;;5114456;27;19916;-55
2022/10/03 10:29:35;;;;;;;;;;;17.30;99.90;;;;;;5100881;27;19970;-56
2022/10/03 10:32:32;;;;;;;;;;;17.40;99.90;;;;;;5123108;27;19912;-56
2022/10/03 10:35:27;;;;;;;;;;;17.20;99.90;;;;;;5099122;27;19927;-56
2022/10/03 10:38:30;;;;;;;;;;;16.80;99.90;;;;;;5071621;28;19917;-55
2022/10/03 10:41:28;;;;;;;;;;;16.80;99.90;;;;;;5088495;27;19935;-55
2022/10/03 10:44:26;;;;;;;;;;;16.80;99.90;;;;;;5093803;27;19934;-56
2022/10/03 10:47:26;;;;;;;;;;;17.00;99.90;;;;;;5096022;27;19916;-56
2022/10/03 10:50:35;;;;;;;;;;;17.10;99.90;;;;;;5103923;27;19942;-56
2022/10/03 10:57:39;;;;;;;1.23;0.75;;;17.40;99.90;;;;;;5062184;28;20578;-54
2022/10/03 11:00:32;;;;;;;3.35;0.95;;;17.50;99.90;;;;;;5044952;27;20586;-58
2022/10/03 11:03:46;;;;;;;2.22;0.90;;;17.30;99.90;;;;;;5082072;27;20677;-59
2022/10/03 11:10:32;;;;;;;;;;;16.50;99.90;;;;;;5058672;27;78394;-57
2022/10/03 11:13:37;;;;;;;;;;;15.60;99.90;;;;;;5104882;27;2273;-57
2022/10/03 11:16:36;;;;;;;;;;;15.40;99.90;;;;;;5107381;27;2076;-56
2022/10/03 11:19:31;;;;;;;;;;;15.60;99.90;;;;;;5121537;27;1501;-58
2022/10/03 11:22:27;;;;;;;;;;;16.20;99.90;;;;;;5108875;27;2149;-56
2022/10/03 11:25:23;;;;;;;;;;;16.80;99.90;;;;;;5111415;27;1642;-57
2022/10/03 11:28:31;;;;;;;;;;;17.70;99.90;;;;;;5115627;27;1566;-58
2022/10/03 11:31:27;;;;;;;;;;;18.00;99.90;;;;;;5121002;27;1781;-57
2022/10/03 11:34:35;;;;;;;;;;;17.60;99.90;;;;;;5103148;27;1269;-58
2022/10/03 11:37:24;;;;;;;;;;;17.00;99.90;;;;;;5102751;27;1872;-56
2022/10/03 11:40:10;;;;;;;;;;;16.60;99.90;;;;;;5122145;27;1578;-56
2022/10/03 11:42:56;;;;;;;;;;;16.40;99.90;;;;;;5087197;27;10855;-57
2022/10/03 11:45:41;;;;;;;;;;;16.20;99.90;;;;;;5123176;27;1677;-56
2022/10/03 11:48:26;;;;;;;;;;;16.40;99.90;;;;;;5124086;27;1493;-56
2022/10/03 11:51:05;;;;;;;;;;;16.70;99.90;;;;;;5122595;27;1764;-56
2022/10/03 11:53:48;;;;;;;;;;;17.00;99.90;;;;;;5123714;27;1299;-56
2022/10/03 11:56:33;;;;;;;;;;;17.40;99.90;;;;;;5074757;27;1617;-56
2022/10/03 11:59:44;;;;;;;;;;;17.80;99.90;;;;;;5103636;27;1284;-56
2022/10/03 12:02:35;;;;;;;;;;;18.00;99.90;;;;;;5115192;27;1760;-58
2022/10/03 12:05:18;;;;;;;;;;;18.10;99.90;;;;;;5119178;27;1727;-58
2022/10/03 12:11:02;;;;;;;;;;;18.00;99.90;;;;;;5100402;27;2117;-57
2022/10/03 12:13:46;;;;;;;;;;;17.90;99.90;;;;;;5071819;27;2364;-56
2022/10/03 12:16:26;;;;;;;;;;;17.70;99.90;;;;;;5114887;27;2035;-57
2022/10/03 12:19:09;;;;;;;;;;;17.80;99.90;;;;;;5121669;27;1561;-57
2022/10/03 12:21:53;;;;;;;;;;;18.00;99.90;;;;;;5110392;27;1760;-55
2022/10/03 12:24:35;;;;;;;;;;;18.10;99.90;;;;;;5121506;27;1537;-54
2022/10/03 12:27:17;;;;;;;;;;;17.80;99.90;;;;;;5109562;27;1917;-56
2022/10/03 12:29:58;;;;;;;;;;;17.50;99.90;;;;;;5107768;27;1615;-57
2022/10/03 12:32:42;;;;;;;;;;;17.40;99.90;;;;;;5114897;27;1390;-56
2022/10/03 12:35:49;;;;;;;;;;;17.20;99.90;;;;;;5119880;27;1621;-58
2022/10/03 12:38:33;;;;;;;;;;;17.50;99.90;;;;;;5123416;27;1394;-57
2022/10/03 12:41:19;;;;;;;;;;;17.90;99.90;;;;;;5121165;27;1555;-55
2022/10/03 12:44:09;;;;;;;;;;;18.10;99.90;;;;;;5108224;27;1716;-56
2022/10/03 12:46:53;;;;;;;;;;;17.80;99.90;;;;;;5121755;27;1741;-56
2022/10/03 12:49:41;;;;;;;;;;;17.20;99.90;;;;;;5122827;27;1336;-56
2022/10/03 12:52:21;;;;;;;;;;;16.90;99.90;;;;;;5122833;27;2133;-56
2022/10/03 12:55:08;;;;;;;;;;;16.70;99.90;;;;;;5119154;27;1681;-57
2022/10/03 12:57:49;;;;;;;;;;;16.70;99.90;;;;;;5106489;27;1947;-56
2022/10/03 13:00:32;;;;;;;;;;;16.70;99.90;;;;;;5161843;27;1564;-56
2022/10/03 13:03:25;;;;;;;;;;;16.70;99.90;;;;;;5121496;27;1236;-56
2022/10/03 13:06:24;;;;;;;;;;;16.60;99.90;;;;;;5107521;27;2299;-56
2022/10/03 13:09:11;;;;;;;;;;;16.50;99.90;;;;;;5118170;27;1634;-57
2022/10/03 13:11:55;;;;;;;;;;;16.20;99.90;;;;;;5121444;27;1767;-56
2022/10/03 13:15:05;;;;;;;;;;;15.80;99.90;;;;;;5122918;27;1284;-56
2022/10/03 13:17:48;;;;;;;;;;;15.50;99.90;;;;;;5107573;27;2440;-57
2022/10/03 13:20:29;;;;;;;;;;;15.20;99.90;;;;;;5120439;27;1667;-56
2022/10/03 13:23:14;;;;;;;;;;;15.30;99.90;;;;;;5088764;27;1218;-56
2022/10/03 13:25:58;;;;;;;;;;;15.60;99.90;;;;;;5120955;27;1599;-56
2022/10/03 13:28:48;;;;;;;;;;;16.20;99.90;;;;;;5103508;27;1226;-56
2022/10/03 13:31:29;;;;;;;;;;;16.40;99.90;;;;;;5121541;27;1780;-56
2022/10/03 13:34:14;;;;;;;;;;;16.40;99.90;;;;;;5124326;27;1493;-54
2022/10/03 13:36:57;;;;;;;;;;;16.70;99.90;;;;;;5112510;27;1906;-57
2022/10/03 13:39:43;;;;;;;;;;;17.00;99.90;;;;;;5123039;27;1357;-56
2022/10/03 13:42:32;;;;;;;;;;;17.30;99.90;;;;;;5111067;27;1659;-57
2022/10/03 13:45:13;;;;;;;;;;;17.40;99.90;;;;;;5100790;27;1624;-56
2022/10/03 13:47:54;;;;;;;;;;;17.20;99.90;;;;;;5106486;27;1435;-56
2022/10/03 13:50:39;;;;;;;;;;;16.90;99.90;;;;;;5114975;27;1644;-57
2022/10/03 13:53:23;;;;;;;;;;;16.60;99.90;;;;;;5121129;27;1862;-57
2022/10/03 13:56:07;;;;;;;;;;;16.60;99.90;;;;;;5119255;27;1634;-56
2022/10/03 13:58:50;;;;;;;;;;;16.50;99.90;;;;;;5118718;27;1420;-58
2022/10/03 14:01:37;;;;;;;;;;;16.50;99.90;;;;;;5117204;27;1818;-57
2022/10/03 14:04:28;;;;;;;;;;;16.30;99.90;;;;;;5123312;27;1316;-56
2022/10/03 14:07:11;;;;;;;;;;;16.00;99.90;;;;;;5106790;27;1805;-56
2022/10/03 14:10:01;;;;;;;;;;;16.00;99.90;;;;;;5081527;27;1767;-54
2022/10/03 14:12:45;;;;;;;;;;;15.90;99.90;;;;;;5090037;27;1310;-57
2022/10/03 14:15:31;;;;;;;;;;;15.60;99.90;;;;;;5116210;27;1696;-54
2022/10/03 14:18:14;;;;;;;;;;;15.40;99.90;;;;;;5112970;27;1629;-56
2022/10/03 14:21:16;;;;;;;;;;;15.50;99.90;;;;;;5116012;27;1755;-57
2022/10/03 14:24:00;;;;;;;;;;;15.80;99.90;;;;;;5115886;27;1648;-56
2022/10/03 14:26:42;;;;;;;;;;;16.20;99.90;;;;;;5105244;27;1659;-56
2022/10/03 14:29:24;;;;;;;;;;;16.40;99.90;;;;;;5123327;27;1429;-57
2022/10/03 14:32:08;;;;;;;;;;;16.70;99.90;;;;;;5116501;27;1807;-56
2022/10/03 14:34:53;;;;;;;;;;;16.70;99.90;;;;;;5117622;27;1631;-56
2022/10/03 14:37:38;;;;;;;;;;;16.60;99.90;;;;;;5109613;27;1619;-55
2022/10/03 14:40:21;;;;;;;;;;;16.60;99.90;;;;;;5120855;27;2009;-56
2022/10/03 14:43:08;;;;;;;;;;;16.60;99.90;;;;;;5099233;27;1309;-56
2022/10/03 14:45:50;;;;;;;;;;;16.40;99.90;;;;;;5101118;27;1667;-56
2022/10/03 14:48:31;;;;;;;;;;;16.20;99.90;;;;;;5123904;27;1237;-56
2022/10/03 14:51:12;;;;;;;;;;;16.10;99.90;;;;;;5121413;27;1655;-56
2022/10/03 14:53:54;;;;;;;;;;;16.20;99.90;;;;;;5122424;27;1723;-55
2022/10/03 14:56:42;;;;;;;;;;;16.10;99.90;;;;;;5114420;27;1710;-54
2022/10/03 14:59:23;;;;;;;;;;;16.10;99.90;;;;;;5119925;27;1829;-56
2022/10/03 15:02:05;;;;;;;;;;;16.10;99.90;;;;;;5102713;27;1860;-56
2022/10/03 15:04:43;;;;;;;;;;;16.10;99.90;;;;;;5123337;27;1283;-56
2022/10/03 15:07:33;;;;;;;;;;;15.90;99.90;;;;;;5092768;27;1396;-57
2022/10/03 15:10:14;;;;;;;;;;;15.60;99.90;;;;;;5122800;27;1666;-55
2022/10/03 15:12:56;;;;;;;;;;;15.30;99.90;;;;;;5125007;27;1619;-57
2022/10/03 15:15:38;;;;;;;;;;;15.20;99.90;;;;;;5122335;27;1721;-57
2022/10/03 15:18:19;;;;;;;;;;;15.00;99.90;;;;;;5124373;27;1216;-57
2022/10/03 15:20:58;;;;;;;;;;;15.00;99.90;;;;;;5123344;27;1651;-57
2022/10/03 15:23:38;;;;;;;;;;;14.80;99.90;;;;;;5124221;27;1393;-57
2022/10/03 15:26:19;;;;;;;;;;;14.60;99.90;;;;;;5119343;27;1647;-57
2022/10/03 15:28:59;;;;;;;;;;;14.50;99.90;;;;;;5121824;27;1625;-57
2022/10/03 15:31:41;;;;;;;;;;;14.30;99.90;;;;;;5117352;27;1701;-58
2022/10/03 15:34:23;;;;;;;;;;;14.20;99.90;;;;;;5124521;27;1886;-57
2022/10/03 15:37:09;;;;;;;;;;;14.20;99.90;;;;;;5102277;27;1946;-55
2022/10/03 15:39:51;;;;;;;;;;;14.00;99.90;;;;;;5122169;27;1678;-55
2022/10/03 15:42:31;;;;;;;;;;;13.90;99.90;;;;;;5118697;27;2168;-57
2022/10/03 15:45:17;;;;;;;;;;;13.70;99.90;;;;;;5105936;27;1635;-57
2022/10/03 15:47:58;;;;;;;;;;;13.60;99.90;;;;;;5124426;27;1394;-58
2022/10/03 15:50:39;;;;;;;;;;;13.50;99.90;;;;;;5122765;27;1611;-57
2022/10/03 15:53:21;;;;;;;;;;;13.50;99.90;;;;;;5124478;27;1244;-57
2022/10/03 15:56:04;;;;;;;;;;;13.50;99.90;;;;;;5118072;27;1567;-55
2022/10/03 15:58:47;;;;;;;;;;;13.40;99.90;;;;;;5121054;27;2513;-57
2022/10/03 16:01:27;;;;;;;;;;;13.30;99.90;;;;;;5123575;27;1677;-55
2022/10/03 16:04:07;;;;;;;;;;;13.10;99.90;;;;;;5115775;27;2290;-57
2022/10/03 16:06:48;;;;;;;;;;;13.00;99.90;;;;;;5121371;27;1674;-57
2022/10/03 16:09:30;;;;;;;;;;;12.80;99.90;;;;;;5122407;27;1710;-57
2022/10/03 16:12:36;;;;;;;;;;;12.70;99.90;;;;;;5101833;27;1680;-58
2022/10/03 16:15:19;;;;;;;;;;;12.60;99.90;;;;;;5124319;27;1340;-58
2022/10/03 16:18:01;;;;;;;;;;;12.50;99.90;;;;;;5106169;27;1522;-58
2022/10/03 16:20:41;;;;;;;;;;;12.40;99.90;;;;;;5124148;27;1507;-57
2022/10/03 16:23:21;;;;;;;;;;;12.20;99.90;;;;;;5124730;27;3511;-58
2022/10/03 16:26:01;;;;;;;;;;;12.00;99.90;;;;;;5122595;27;1342;-57
2022/10/03 16:28:43;;;;;;;;;;;11.80;99.90;;;;;;5123919;27;1331;-58
2022/10/03 16:31:25;;;;;;;;;;;11.60;99.90;;;;;;5124458;27;1552;-57
2022/10/03 16:34:06;;;;;;;;;;;11.40;99.90;;;;;;5124675;27;1632;-57
2022/10/03 16:36:46;;;;;;;;;;;11.20;99.90;;;;;;5116767;27;1386;-57
2022/10/03 16:39:26;;;;;;;;;;;11.00;99.90;;;;;;5103570;27;1560;-57
2022/10/03 16:42:12;;;;;;;;;;;10.80;99.90;;;;;;5124744;27;1393;-57
2022/10/03 16:44:54;;;;;;;;;;;10.60;99.90;;;;;;5125001;27;1504;-57
2022/10/03 16:47:35;;;;;;;;;;;10.50;99.90;;;;;;5088335;27;1636;-57
2022/10/03 16:50:24;;;;;;;;;;;10.50;99.90;;;;;;5123374;27;1657;-57
2022/10/03 16:53:10;;;;;;;;;;;10.40;99.90;;;;;;5120307;27;1877;-57
2022/10/03 16:55:50;;;;;;;;;;;10.40;99.90;;;;;;5104186;27;1664;-57